Time;durP1;ratioP1;P1;durP2;ratioP2;P2;SDS_P1;SDS_P2;PMS_P1;PMS_P2;Temp;Humidity;BMP_temperature;BMP_pressure;BME280_temperature;BME280_humidity;BME280_pressure;Samples;Min_cycle;Max_cycle;Signal;HPM_P1;HPM_P2
2022/08/25 00:02:03;;;;;;;;;;;;;;;21.55;68.00;101953.59;4990646;28;20020;-52
2022/08/25 00:04:29;;;;;;;;;;;;;;;21.56;67.77;101955.28;4988970;28;19925;-55
2022/08/25 00:06:54;;;;;;;;;;;;;;;21.58;67.83;101955.16;4993773;28;19926;-53
2022/08/25 00:09:21;;;;;;;;;;;;;;;21.54;68.08;101945.69;4991717;28;19935;-53
2022/08/25 00:11:48;;;;;;;;;;;;;;;21.50;68.06;101945.09;4991606;28;19917;-54
2022/08/25 00:14:23;;;;;;;;;;;;;;;21.42;68.05;101948.44;4990362;28;20020;-52
2022/08/25 00:16:49;;;;;;;;;;;;;;;21.36;68.58;101937.41;4992555;28;19922;-53
2022/08/25 00:19:16;;;;;;;;;;;;;;;21.35;68.26;101941.91;4994581;28;19932;-53
2022/08/25 00:21:42;;;;;;;;;;;;;;;21.35;68.61;101935.72;4993178;28;20463;-52
2022/08/25 00:24:09;;;;;;;;;;;;;;;21.35;68.54;101939.22;4993167;28;19929;-54
2022/08/25 00:26:36;;;;;;;;;;;;;;;21.36;68.57;101937.41;4993635;28;20277;-53
2022/08/25 00:29:02;;;;;;;;;;;;;;;21.33;68.42;101938.50;4991453;28;20401;-53
2022/08/25 00:31:28;;;;;;;;;;;;;;;21.31;68.48;101946.66;4993069;28;19921;-52
2022/08/25 00:33:54;;;;;;;;;;;;;;;21.29;68.56;101943.28;4993833;28;20373;-53
2022/08/25 00:36:20;;;;;;;;;;;;;;;21.28;68.48;101932.69;4991870;28;19925;-54
2022/08/25 00:38:46;;;;;;;;;;;;;;;21.24;68.52;101929.44;4991460;28;20278;-54
2022/08/25 00:41:13;;;;;;;;;;;;;;;21.20;68.97;101940.50;4992314;28;19933;-54
2022/08/25 00:43:41;;;;;;;;;;;;;;;21.16;68.95;101942.59;4995499;28;24161;-55
2022/08/25 00:46:09;;;;;;;;;;;;;;;21.15;68.90;101946.25;4992368;28;20421;-55
2022/08/25 00:48:35;;;;;;;;;;;;;;;21.14;68.84;101953.47;4993863;28;19926;-52
2022/08/25 00:51:01;;;;;;;;;;;;;;;21.16;68.95;101953.31;4993193;28;20309;-53
2022/08/25 00:53:28;;;;;;;;;;;;;;;21.16;69.00;101948.81;4992186;28;19932;-52
2022/08/25 00:55:53;;;;;;;;;;;;;;;21.14;69.13;101947.25;4993066;28;19926;-53
2022/08/25 00:58:24;;;;;;;;;;;;;;;21.08;68.96;101945.94;4994434;28;20305;-53
2022/08/25 01:00:51;;;;;;;;;;;;;;;21.03;69.23;101948.13;4990070;28;19928;-54
2022/08/25 01:03:18;;;;;;;;;;;;;;;21.04;69.35;101941.81;4993251;28;19921;-54
2022/08/25 01:05:44;;;;;;;;;;;;;;;21.02;69.59;101941.94;4992734;28;19921;-53
2022/08/25 01:08:10;;;;;;;;;;;;;;;21.01;69.76;101932.22;4989043;28;19918;-55
2022/08/25 01:10:37;;;;;;;;;;;;;;;21.01;69.40;101944.75;4993749;28;19968;-52
2022/08/25 01:13:30;;;;;;;;;;;;;;;21.01;69.49;101947.44;4991790;28;19941;-53
2022/08/25 01:15:56;;;;;;;;;;;;;;;20.99;69.82;101942.19;4994499;28;20408;-53
2022/08/25 01:18:22;;;;;;;;;;;;;;;20.97;69.66;101930.78;4990645;28;20443;-53
2022/08/25 01:20:48;;;;;;;;;;;;;;;20.95;69.76;101924.69;4990616;28;20012;-54
2022/08/25 01:23:22;;;;;;;;;;;;;;;20.92;70.11;101922.28;4993179;28;20011;-54
2022/08/25 01:26:16;;;;;;;;;;;;;;;20.89;70.08;101925.22;4987124;28;19918;-55
2022/08/25 01:31:29;;;;;;;;;;;;;;;20.94;70.12;101925.69;4991601;28;19974;-53
2022/08/25 01:36:42;;;;;;;;;;;;;;;20.97;70.47;101922.75;4986458;28;19932;-52
2022/08/25 01:39:07;;;;;;;;;;;;;;;20.99;70.28;101920.78;4992466;28;19962;-52
2022/08/25 01:41:41;;;;;;;;;;;;;;;21.02;70.30;101925.06;4995125;28;20055;-53
2022/08/25 01:50:25;;;;;;;;;;;;;;;21.01;70.44;101924.19;4989648;28;19988;-52
2022/08/25 01:53:07;;;;;;;;;;;;;;;21.07;70.40;101930.00;4987711;28;19984;-53
2022/08/25 01:55:50;;;;;;;;;;;;;;;21.08;70.37;101924.53;4988918;28;19929;-52
2022/08/25 02:01:19;;;;;;;;;;;;;;;21.13;70.68;101934.84;4992464;28;19941;-54
2022/08/25 02:03:46;;;;;;;;;;;;;;;21.12;70.58;101928.66;4996214;28;23876;-54
2022/08/25 02:06:13;;;;;;;;;;;;;;;21.10;70.70;101930.59;4994917;28;19929;-52
2022/08/25 02:08:39;;;;;;;;;;;;;;;21.09;70.86;101931.56;4992241;28;19928;-53
2022/08/25 02:11:04;;;;;;;;;;;;;;;21.09;71.08;101931.56;4995702;28;19922;-52
2022/08/25 02:13:30;;;;;;;;;;;;;;;21.08;70.97;101923.69;4995761;28;19925;-53
2022/08/25 02:15:56;;;;;;;;;;;;;;;21.09;70.84;101926.22;4994310;28;19956;-53
2022/08/25 02:18:22;;;;;;;;;;;;;;;21.13;70.81;101926.81;4992691;28;19930;-55
2022/08/25 02:20:47;;;;;;;;;;;;;;;21.14;71.12;101916.00;4994041;28;19928;-53
2022/08/25 02:23:13;;;;;;;;;;;;;;;21.16;70.96;101918.53;4995438;28;19976;-53
2022/08/25 02:25:39;;;;;;;;;;;;;;;21.13;70.91;101924.13;4994385;28;19972;-54
2022/08/25 02:28:07;;;;;;;;;;;;;;;21.11;71.03;101921.59;4995692;28;19936;-54
2022/08/25 02:30:33;;;;;;;;;;;;;;;21.12;71.11;101927.78;4992244;28;20451;-54
2022/08/25 02:32:58;;;;;;;;;;;;;;;21.10;71.38;101927.09;4990047;28;19964;-55
2022/08/25 02:35:23;;;;;;;;;;;;;;;21.07;71.50;101922.00;4991873;28;20282;-54
2022/08/25 02:37:52;;;;;;;;;;;;;;;21.05;71.29;101918.59;4993501;28;19922;-52
2022/08/25 02:40:17;;;;;;;;;;;;;;;21.04;71.51;101919.56;4995806;28;19921;-54
2022/08/25 02:42:43;;;;;;;;;;;;;;;21.04;71.26;101917.72;4998219;28;19997;-54
2022/08/25 02:45:09;;;;;;;;;;;;;;;21.03;71.71;101918.69;4999236;28;19922;-57
2022/08/25 02:47:35;;;;;;;;;;;;;;;21.01;71.72;101918.84;4993800;28;19949;-54
2022/08/25 02:50:01;;;;;;;;;;;;;;;21.04;71.71;101916.88;4994038;28;20408;-53
2022/08/25 02:52:27;;;;;;;;;;;;;;;21.05;71.81;101913.22;4996038;28;19925;-52
2022/08/25 02:54:52;;;;;;;;;;;;;;;21.04;71.71;101915.03;4991899;28;19925;-55
2022/08/25 02:57:18;;;;;;;;;;;;;;;21.01;71.80;101913.50;4992923;28;19930;-54
2022/08/25 02:59:47;;;;;;;;;;;;;;;21.01;71.90;101912.66;4993063;28;20313;-53
2022/08/25 03:02:12;;;;;;;;;;;;;;;21.02;71.85;101917.88;4993413;28;19930;-53
2022/08/25 03:04:37;;;;;;;;;;;;;;;21.01;71.93;101913.50;4991032;28;19921;-53
2022/08/25 03:07:04;;;;;;;;;;;;;;;21.01;71.82;101912.66;4991893;28;20135;-53
2022/08/25 03:09:29;;;;;;;;;;;;;;;21.00;72.08;101916.31;4996418;28;20566;-52
2022/08/25 03:11:55;;;;;;;;;;;;;;;21.00;72.25;101906.44;4994155;28;19925;-53
2022/08/25 03:14:20;;;;;;;;;;;;;;;21.00;72.21;101906.44;4993244;28;19969;-52
2022/08/25 03:16:45;;;;;;;;;;;;;;;21.01;72.18;101905.47;4992487;28;20767;-54
2022/08/25 03:19:10;;;;;;;;;;;;;;;21.05;71.95;101897.19;4993994;28;20024;-54
2022/08/25 03:21:37;;;;;;;;;;;;;;;21.09;72.13;101901.31;4992137;28;19930;-52
2022/08/25 03:24:03;;;;;;;;;;;;;;;21.09;72.27;101899.47;4993849;28;19933;-51
2022/08/25 03:29:12;;;;;;;;;;;;;;;21.11;71.93;101891.28;4979960;28;19932;-52
2022/08/25 03:31:38;;;;;;;;;;;;;;;21.12;72.43;101891.19;4990984;28;19921;-52
2022/08/25 03:34:03;;;;;;;;;;;;;;;21.14;72.13;101901.75;4990454;28;20016;-51
2022/08/25 03:36:28;;;;;;;;;;;;;;;21.17;72.24;101893.47;4987611;28;19971;-53
2022/08/25 03:38:54;;;;;;;;;;;;;;;21.20;72.14;101895.88;4993722;28;19979;-51
2022/08/25 03:41:21;;;;;;;;;;;;;;;21.25;71.97;101892.81;4991983;28;19937;-52
2022/08/25 03:43:47;;;;;;;;;;;;;;;21.28;72.00;101896.06;4992426;28;19921;-54
2022/08/25 03:46:21;;;;;;;;;;;;;;;21.31;72.18;101903.84;4975740;28;20301;-51
2022/08/25 03:48:47;;;;;;;;;;;;;;;21.37;72.03;101909.66;4990751;28;19932;-52
2022/08/25 03:51:17;;;;;;;;;;;;;;;21.41;71.84;101903.03;4988307;28;19956;-54
2022/08/25 03:53:42;;;;;;;;;;;;;;;21.46;72.01;101903.50;4991583;28;20016;-52
2022/08/25 03:56:08;;;;;;;;;;;;;;;21.47;71.66;101892.69;4991765;28;20991;-51
2022/08/25 03:58:33;;;;;;;;;;;;;;;21.50;71.81;101893.38;4996298;28;19925;-55
2022/08/25 04:00:59;;;;;;;;;;;;;;;21.53;71.69;101898.47;4990468;28;19929;-54
2022/08/25 04:03:24;;;;;;;;;;;;;;;21.53;71.88;101895.78;4994075;28;20373;-52
2022/08/25 04:05:50;;;;;;;;;;;;;;;21.56;71.87;101904.41;4992439;28;19936;-53
2022/08/25 04:08:15;;;;;;;;;;;;;;;21.56;71.85;101901.72;4996416;28;19987;-52
2022/08/25 04:10:40;;;;;;;;;;;;;;;21.59;71.80;101901.47;4995316;28;19936;-51
2022/08/25 04:13:06;;;;;;;;;;;;;;;21.61;71.65;101901.38;4992447;28;19987;-51
2022/08/25 04:15:31;;;;;;;;;;;;;;;21.60;71.73;101889.78;4993052;28;19932;-54
2022/08/25 04:17:57;;;;;;;;;;;;;;;21.61;71.78;101899.53;5010205;28;19917;-52
2022/08/25 04:20:23;;;;;;;;;;;;;;;21.62;71.55;101898.56;4990225;28;19930;-53
2022/08/25 04:22:48;;;;;;;;;;;;;;;21.62;71.63;101895.88;4974725;28;19925;-52
2022/08/25 04:25:13;;;;;;;;;;;;;;;21.64;71.77;101902.94;4980534;28;19925;-51
2022/08/25 04:27:38;;;;;;;;;;;;;;;21.64;71.84;101900.25;4991755;28;19937;-52
2022/08/25 04:30:04;;;;;;;;;;;;;;;21.65;71.87;101908.13;4990494;28;20378;-52
2022/08/25 04:32:31;;;;;;;;;;;;;;;21.67;71.63;101902.66;4981634;28;19968;-53
2022/08/25 04:34:56;;;;;;;;;;;;;;;21.66;71.51;101907.16;4992272;28;20110;-54
2022/08/25 04:37:21;;;;;;;;;;;;;;;21.68;71.75;101905.19;5003964;28;20874;-51
2022/08/25 04:39:46;;;;;;;;;;;;;;;21.69;71.84;101906.06;4988439;28;19936;-53
2022/08/25 04:42:12;;;;;;;;;;;;;;;21.70;71.75;101918.47;4990896;28;19930;-51
2022/08/25 04:44:37;;;;;;;;;;;;;;;21.70;71.67;101916.63;4992358;28;19964;-54
2022/08/25 04:47:02;;;;;;;;;;;;;;;21.72;71.88;101906.63;4994797;28;20063;-51
2022/08/25 04:49:28;;;;;;;;;;;;;;;21.72;71.61;101912.00;4991111;28;19995;-52
2022/08/25 04:51:55;;;;;;;;;;;;;;;21.73;71.45;101907.47;4988404;28;19926;-51
2022/08/25 04:54:20;;;;;;;;;;;;;;;21.74;71.67;101911.84;4989246;28;20779;-53
2022/08/25 04:56:47;;;;;;;;;;;;;;;21.76;71.67;101917.94;4997909;28;19917;-54
2022/08/25 04:59:14;;;;;;;;;;;;;;;21.76;71.64;101912.56;4994004;28;20370;-53
2022/08/25 05:01:41;;;;;;;;;;;;;;;21.75;71.66;101910.88;4993850;28;19937;-52
2022/08/25 05:04:07;;;;;;;;;;;;;;;21.75;71.52;101901.03;4995686;28;19979;-52
2022/08/25 05:06:33;;;;;;;;;;;;;;;21.75;71.64;101905.50;4993932;28;19925;-54
2022/08/25 05:08:59;;;;;;;;;;;;;;;21.73;71.79;101910.16;4993020;28;19925;-54
2022/08/25 05:11:24;;;;;;;;;;;;;;;21.71;71.95;101918.34;4996645;28;19922;-53
2022/08/25 05:13:51;;;;;;;;;;;;;;;21.71;71.71;101914.78;4995757;28;21321;-53
2022/08/25 05:16:16;;;;;;;;;;;;;;;21.70;71.99;101921.16;4994324;28;19971;-53
2022/08/25 05:18:42;;;;;;;;;;;;;;;21.68;71.62;101910.56;4991901;28;20017;-52
2022/08/25 05:21:09;;;;;;;;;;;;;;;21.68;71.78;101915.91;4992234;28;20032;-53
2022/08/25 05:23:35;;;;;;;;;;;;;;;21.67;71.83;101913.38;4993263;28;19972;-54
2022/08/25 05:26:03;;;;;;;;;;;;;;;21.67;72.01;101918.75;4996201;28;19957;-52
2022/08/25 05:28:28;;;;;;;;;;;;;;;21.69;71.95;101919.47;4993475;28;19918;-53
2022/08/25 05:30:57;;;;;;;;;;;;;;;21.68;72.07;101918.59;4990262;28;20058;-54
2022/08/25 05:33:22;;;;;;;;;;;;;;;21.67;71.84;101921.41;4992076;28;19928;-52
2022/08/25 05:35:47;;;;;;;;;;;;;;;21.66;71.68;101917.88;4995839;28;19951;-53
2022/08/25 05:38:13;;;;;;;;;;;;;;;21.64;71.92;101919.84;4998424;28;19929;-54
2022/08/25 05:40:38;;;;;;;;;;;;;;;21.62;71.98;101919.97;4997816;28;19937;-53
2022/08/25 05:43:03;;;;;;;;;;;;;;;21.64;72.07;101910.97;5011564;28;19941;-52
2022/08/25 05:45:28;;;;;;;;;;;;;;;21.64;72.10;101911.78;4999767;28;19925;-54
2022/08/25 05:47:54;;;;;;;;;;;;;;;21.66;72.04;101919.72;4998394;28;19996;-54
2022/08/25 05:50:19;;;;;;;;;;;;;;;21.68;72.16;101925.78;4997427;28;19929;-54
2022/08/25 05:52:45;;;;;;;;;;;;;;;21.70;72.12;101927.34;4997663;28;19922;-53
2022/08/25 05:55:10;;;;;;;;;;;;;;;21.73;71.95;101923.53;4998888;28;19929;-52
2022/08/25 05:57:36;;;;;;;;;;;;;;;21.75;72.08;101921.59;4999426;28;19926;-51
2022/08/25 06:00:03;;;;;;;;;;;;;;;21.75;72.00;101917.09;4999203;28;20389;-52
2022/08/25 06:02:42;;;;;;;;;;;;;;;21.76;72.08;101924.16;4996232;28;19929;-52
2022/08/25 06:05:08;;;;;;;;;;;;;;;21.78;71.86;101924.84;4997510;28;19917;-51
2022/08/25 06:07:35;;;;;;;;;;;;;;;21.81;71.89;101914.84;4998111;28;19929;-52
2022/08/25 06:10:00;;;;;;;;;;;;;;;21.84;72.07;101926.16;4990948;28;20444;-53
2022/08/25 06:12:26;;;;;;;;;;;;;;;21.86;71.92;101916.13;4998071;28;19917;-52
2022/08/25 06:14:51;;;;;;;;;;;;;;;21.83;72.09;101915.56;4992247;28;19980;-51
2022/08/25 06:17:17;;;;;;;;;;;;;;;21.82;71.89;101914.72;4997001;28;19932;-52
2022/08/25 06:19:42;;;;;;;;;;;;;;;21.82;72.26;101917.41;4997913;28;19925;-51
2022/08/25 06:22:07;;;;;;;;;;;;;;;21.80;71.83;101919.38;4997955;28;20544;-52
2022/08/25 06:24:33;;;;;;;;;;;;;;;21.77;72.36;101914.25;4997632;28;19929;-54
2022/08/25 06:26:59;;;;;;;;;;;;;;;21.77;72.31;101919.63;4999054;28;19914;-53
2022/08/25 06:29:25;;;;;;;;;;;;;;;21.77;72.44;101920.50;4998264;28;19921;-52
2022/08/25 06:31:50;;;;;;;;;;;;;;;21.81;72.29;101929.09;4994991;28;19929;-53
2022/08/25 06:34:17;;;;;;;;;;;;;;;21.83;72.20;101921.78;4996975;28;19937;-52
2022/08/25 06:36:42;;;;;;;;;;;;;;;21.87;72.21;101920.50;4999061;28;19917;-51
2022/08/25 06:39:08;;;;;;;;;;;;;;;21.88;72.16;101924.06;4998665;28;20353;-52
2022/08/25 06:41:33;;;;;;;;;;;;;;;21.89;72.00;101929.25;4997310;28;19930;-53
2022/08/25 06:43:59;;;;;;;;;;;;;;;21.90;72.00;101925.59;4998247;28;19984;-53
2022/08/25 06:46:29;;;;;;;;;;;;;;;21.90;71.79;101919.41;4997044;28;19929;-52
2022/08/25 06:48:56;;;;;;;;;;;;;;;21.90;72.25;101919.41;4997216;28;19917;-54
2022/08/25 06:51:22;;;;;;;;;;;;;;;21.88;71.94;101919.53;4996655;28;20012;-52
2022/08/25 06:53:48;;;;;;;;;;;;;;;21.90;72.25;101920.25;4993794;28;20020;-51
2022/08/25 06:56:14;;;;;;;;;;;;;;;21.93;71.92;101914.63;4994836;28;20020;-51
2022/08/25 06:58:40;;;;;;;;;;;;;;;21.98;72.00;101926.78;5008057;28;19927;-51
2022/08/25 07:01:10;;;;;;;;;;;;;;;22.02;71.94;101923.69;4993810;28;19948;-54
2022/08/25 07:03:35;;;;;;;;;;;;;;;22.07;71.82;101917.91;4998576;28;20405;-52
2022/08/25 07:06:00;;;;;;;;;;;;;;;22.09;71.70;101918.63;4993911;28;19925;-53
2022/08/25 07:08:26;;;;;;;;;;;;;;;22.12;71.76;101918.38;4994880;28;20400;-53
2022/08/25 07:10:51;;;;;;;;;;;;;;;22.14;71.93;101919.06;4996043;28;19922;-53
2022/08/25 07:13:16;;;;;;;;;;;;;;;22.17;71.62;101909.91;4996854;28;19918;-55
2022/08/25 07:15:42;;;;;;;;;;;;;;;22.22;71.64;101919.22;4994762;28;19930;-52
2022/08/25 07:18:08;;;;;;;;;;;;;;;22.26;71.57;101914.44;4996596;28;20023;-51
2022/08/25 07:20:34;;;;;;;;;;;;;;;22.31;71.44;101919.41;4994509;28;20411;-51
2022/08/25 07:23:00;;;;;;;;;;;;;;;22.36;71.34;101915.31;4978465;28;19929;-54
2022/08/25 07:25:25;;;;;;;;;;;;;;;22.40;71.49;101918.56;4996242;28;20431;-52
2022/08/25 07:27:50;;;;;;;;;;;;;;;22.42;71.26;101922.00;4992257;28;19956;-54
2022/08/25 07:30:16;;;;;;;;;;;;;;;22.44;71.25;101911.13;4991633;28;20000;-53
2022/08/25 07:32:42;;;;;;;;;;;;;;;22.49;71.07;101901.66;4994246;28;19929;-52
2022/08/25 07:35:16;;;;;;;;;;;;;;;22.52;71.19;101906.75;4980192;28;19925;-55
2022/08/25 07:37:47;;;;;;;;;;;;;;;22.54;71.10;101917.34;4993994;28;19917;-53
2022/08/25 07:40:14;;;;;;;;;;;;;;;22.53;71.22;101904.94;4997724;28;20290;-52
2022/08/25 07:42:40;;;;;;;;;;;;;;;22.55;71.07;101911.00;4996753;28;19925;-52
2022/08/25 07:45:07;;;;;;;;;;;;;;;22.55;70.87;101904.78;4995663;28;19929;-53
2022/08/25 07:47:32;;;;;;;;;;;;;;;22.56;70.97;101907.31;4996853;28;19921;-52
2022/08/25 07:49:57;;;;;;;;;;;;;;;22.58;70.89;101901.84;4995742;28;19983;-52
2022/08/25 07:52:23;;;;;;;;;;;;;;;22.57;70.83;101900.97;4995064;28;20319;-53
2022/08/25 07:54:48;;;;;;;;;;;;;;;22.58;70.69;101910.72;4994232;28;20714;-52
2022/08/25 07:57:13;;;;;;;;;;;;;;;22.59;70.84;101903.53;4995569;28;19929;-52
2022/08/25 07:59:42;;;;;;;;;;;;;;;22.57;70.76;101905.50;4993937;28;20282;-53
2022/08/25 08:02:09;;;;;;;;;;;;;;;22.58;70.90;101905.34;4993536;28;19925;-52
2022/08/25 08:04:35;;;;;;;;;;;;;;;22.63;70.75;101907.59;4995942;28;19925;-52
2022/08/25 08:07:00;;;;;;;;;;;;;;;22.69;70.57;101907.06;4995866;28;19918;-54
2022/08/25 08:09:25;;;;;;;;;;;;;;;22.76;70.60;101905.53;4996089;28;19921;-52
2022/08/25 08:11:51;;;;;;;;;;;;;;;22.82;70.18;101909.47;4993503;28;19933;-54
2022/08/25 08:14:16;;;;;;;;;;;;;;;22.87;70.28;101906.38;4996430;28;19936;-54
2022/08/25 08:16:41;;;;;;;;;;;;;;;22.92;70.05;101904.09;4996969;28;20445;-54
2022/08/25 08:19:07;;;;;;;;;;;;;;;22.94;69.97;101908.34;4995999;28;19932;-51
2022/08/25 08:21:33;;;;;;;;;;;;;;;22.95;69.95;101904.66;4991068;28;19933;-52
2022/08/25 08:23:59;;;;;;;;;;;;;;;22.99;69.91;101906.06;4990565;28;19928;-53
2022/08/25 08:26:25;;;;;;;;;;;;;;;23.01;69.93;101908.63;4992578;28;19926;-53
2022/08/25 08:28:50;;;;;;;;;;;;;;;23.05;69.92;101907.34;4996454;28;19925;-53
2022/08/25 08:31:20;;;;;;;;;;;;;;;23.09;69.90;101895.31;4992960;28;19949;-53
2022/08/25 08:33:46;;;;;;;;;;;;;;;23.17;69.71;101891.09;4994897;28;19921;-55
2022/08/25 08:36:12;;;;;;;;;;;;;;;23.24;69.57;101892.22;4995256;28;19918;-52
2022/08/25 08:38:38;;;;;;;;;;;;;;;23.28;69.33;101889.13;4995327;28;19924;-55
2022/08/25 08:44:15;;;;;;;;;;;;;;;23.26;69.16;101895.59;4995943;28;19929;-52
2022/08/25 08:46:48;;;;;;;;;;;;;;;23.25;69.36;101891.22;4975097;28;19952;-51
2022/08/25 08:49:21;;;;;;;;;;;;;;;23.29;69.38;101890.78;4992963;28;19929;-53
2022/08/25 08:51:52;;;;;;;;;;;;;;;23.36;69.22;101890.22;4990050;28;19972;-55
2022/08/25 08:54:23;;;;;;;;;;;;;;;23.43;69.04;101891.34;4992191;28;19925;-51
2022/08/25 08:56:52;;;;;;;;;;;;;;;23.47;68.75;101886.53;4996599;28;19921;-53
2022/08/25 08:59:21;;;;;;;;;;;;;;;23.51;68.82;101894.13;4996861;28;19926;-53
2022/08/25 09:01:58;;;;;;;;;;;;;;;23.53;68.75;101896.66;4992254;28;19942;-52
2022/08/25 09:04:32;;;;;;;;;;;;;;;23.53;68.73;101891.28;4990421;28;20317;-54
2022/08/25 09:06:59;;;;;;;;;;;;;;;23.53;68.75;101894.84;4980035;28;19987;-53
2022/08/25 09:09:29;;;;;;;;;;;;;;;23.55;68.71;101898.22;4993017;28;19925;-52
2022/08/25 09:11:57;;;;;;;;;;;;;;;23.58;68.61;101899.75;4992990;28;19972;-53
2022/08/25 09:14:32;;;;;;;;;;;;;;;23.63;68.55;101900.19;4991883;28;19929;-51
2022/08/25 09:17:07;;;;;;;;;;;;;;;23.70;68.40;101890.53;4994334;28;19960;-52
2022/08/25 09:19:41;;;;;;;;;;;;;;;23.74;68.30;101883.88;4995468;28;20381;-52
2022/08/25 09:22:22;;;;;;;;;;;;;;;23.81;68.35;101877.91;4994181;28;20337;-51
2022/08/25 09:24:53;;;;;;;;;;;;;;;23.87;67.91;101872.78;4993794;28;19932;-52
2022/08/25 09:27:25;;;;;;;;;;;;;;;23.91;67.96;101873.34;5011513;28;19921;-54
2022/08/25 09:29:58;;;;;;;;;;;;;;;23.96;67.91;101879.16;4996289;28;20286;-55
2022/08/25 09:32:24;;;;;;;;;;;;;;;24.04;67.77;101876.53;4995685;28;19979;-53
2022/08/25 09:34:49;;;;;;;;;;;;;;;24.12;67.55;101880.34;4995679;28;19921;-53
2022/08/25 09:37:15;;;;;;;;;;;;;;;24.17;67.43;101873.50;4996150;28;19917;-52
2022/08/25 09:39:41;;;;;;;;;;;;;;;24.25;67.36;101879.94;4996568;28;20024;-52
2022/08/25 09:42:06;;;;;;;;;;;;;;;24.30;67.31;101874.97;4994292;28;19930;-52
2022/08/25 09:44:37;;;;;;;;;;;;;;;24.37;67.21;101872.53;4995023;28;19932;-53
2022/08/25 09:47:06;;;;;;;;;;;;;;;24.44;67.08;101865.53;4993658;28;20439;-54
2022/08/25 09:49:36;;;;;;;;;;;;;;;24.51;66.77;101863.91;4993586;28;19929;-54
2022/08/25 09:52:24;;;;;;;;;;;;;;;24.54;66.67;101862.75;4991576;28;20412;-53
2022/08/25 09:54:50;;;;;;;;;;;;;;;24.61;66.65;101859.28;4991430;28;20000;-52
2022/08/25 09:57:31;;;;;;;;;;;;;;;24.69;66.48;101855.00;4993428;28;20004;-52
2022/08/25 09:59:56;;;;;;;;;;;;;;;24.77;66.37;101847.00;4995382;28;19921;-51
2022/08/25 10:02:24;;;;;;;;;;;;;;;24.81;66.04;101848.41;4992220;28;19928;-52
2022/08/25 10:04:49;;;;;;;;;;;;;;;24.86;65.97;101838.03;4995379;28;19922;-53
2022/08/25 10:07:20;;;;;;;;;;;;;;;24.89;65.93;101835.00;4995068;28;19924;-53
2022/08/25 10:09:50;;;;;;;;;;;;;;;24.91;65.97;101835.69;4993869;28;19968;-54
2022/08/25 10:12:19;;;;;;;;;;;;;;;24.90;65.86;101828.59;4992232;28;19929;-52
2022/08/25 10:14:45;;;;;;;;;;;;;;;24.92;65.78;101828.47;4995928;28;19921;-53
2022/08/25 10:17:11;;;;;;;;;;;;;;;24.92;65.92;101829.31;4994321;28;20640;-53
2022/08/25 10:19:36;;;;;;;;;;;;;;;24.92;65.73;101829.31;4995961;28;19913;-53
2022/08/25 10:22:04;;;;;;;;;;;;;;;24.89;65.50;101829.59;4978145;28;19932;-52
2022/08/25 10:24:30;;;;;;;;;;;;;;;24.87;65.45;101826.25;4997645;28;19922;-55
2022/08/25 10:27:00;;;;;;;;;;;;;;;24.86;65.58;101819.19;4997601;28;19928;-53
2022/08/25 10:29:28;;;;;;;;;;;;;;;24.85;65.43;101816.63;4999135;28;19925;-52
2022/08/25 10:31:54;;;;;;;;;;;;;;;24.85;65.54;101805.84;4995697;28;19988;-52
2022/08/25 10:34:38;;;;;;;;;;;;;;;24.86;65.47;101813.78;4998421;28;19922;-52
2022/08/25 10:37:12;;;;;;;;;;;;;;;24.90;65.36;101808.94;4997628;28;19926;-53
2022/08/25 10:39:38;;;;;;;;;;;;;;;24.92;65.30;101807.75;4999648;28;20282;-53
2022/08/25 10:42:25;;;;;;;;;;;;;;;24.94;65.29;101803.06;4998001;28;19932;-55
2022/08/25 10:47:52;;;;;;;;;;;;;;;24.96;64.82;101801.06;4995819;28;19936;-53
2022/08/25 10:50:26;;;;;;;;;;;;;;;24.98;64.83;101800.06;4996885;28;20009;-52
2022/08/25 10:52:54;;;;;;;;;;;;;;;24.99;65.07;101796.38;4997736;28;19924;-51
2022/08/25 10:55:33;;;;;;;;;;;;;;;25.00;64.94;101792.69;4996056;28;19921;-52
2022/08/25 10:58:05;;;;;;;;;;;;;;;25.04;65.02;101794.03;4996592;28;19928;-52
2022/08/25 11:00:40;;;;;;;;;;;;;;;25.04;64.62;101794.91;4995839;28;20016;-53
2022/08/25 11:03:13;;;;;;;;;;;;;;;25.04;64.82;101786.81;4996905;28;19922;-53
2022/08/25 11:05:44;;;;;;;;;;;;;;;25.04;64.75;101786.81;4998730;28;19914;-52
2022/08/25 11:08:20;;;;;;;;;;;;;;;25.06;64.80;101782.13;4996757;28;19917;-51
2022/08/25 11:10:45;;;;;;;;;;;;;;;25.07;64.65;101782.94;4996307;28;20432;-52
2022/08/25 11:13:14;;;;;;;;;;;;;;;25.10;64.76;101778.13;4990040;28;19931;-52
2022/08/25 11:15:47;;;;;;;;;;;;;;;25.16;64.53;101773.06;4993679;28;20011;-53
2022/08/25 11:18:13;;;;;;;;;;;;;;;25.22;64.50;101770.59;4995842;28;20016;-54
2022/08/25 11:20:57;;;;;;;;;;;;;;;25.26;64.29;101771.09;4993580;28;19952;-52
2022/08/25 11:23:48;;;;;;;;;;;;;;;25.31;64.25;101768.78;4995504;28;19960;-52
2022/08/25 11:26:16;;;;;;;;;;;;;;;25.37;64.28;101761.88;4996824;28;20004;-52
2022/08/25 11:28:41;;;;;;;;;;;;;;;25.42;64.15;101764.97;4986600;28;19937;-54
2022/08/25 11:31:07;;;;;;;;;;;;;;;25.44;63.86;101760.28;4999911;28;19926;-53
2022/08/25 11:33:38;;;;;;;;;;;;;;;25.43;63.80;101755.91;4990851;28;20300;-52
2022/08/25 11:36:15;;;;;;;;;;;;;;;25.43;63.73;101753.19;4981139;28;20016;-52
2022/08/25 11:39:00;;;;;;;;;;;;;;;25.43;64.00;101755.91;4996964;28;19921;-52
2022/08/25 11:41:32;;;;;;;;;;;;;;;25.46;63.83;101755.56;4994040;28;19965;-53
2022/08/25 11:44:01;;;;;;;;;;;;;;;25.50;63.61;101751.53;4994159;28;19908;-54
2022/08/25 11:46:34;;;;;;;;;;;;;;;25.53;63.73;101750.38;4992979;28;19960;-54
2022/08/25 11:49:12;;;;;;;;;;;;;;;25.57;63.70;101746.34;4991523;28;20036;-52
2022/08/25 11:51:42;;;;;;;;;;;;;;;25.62;63.48;101748.56;4987706;28;20102;-54
2022/08/25 11:54:19;;;;;;;;;;;;;;;25.69;63.49;101754.97;4976357;28;19989;-51
2022/08/25 11:56:53;;;;;;;;;;;;;;;25.77;63.20;101741.53;4994525;28;19926;-54
2022/08/25 11:59:37;;;;;;;;;;;;;;;25.84;63.06;101741.69;4991151;28;19932;-52
2022/08/25 12:02:02;;;;;;;;;;;;;;;25.93;63.16;101735.31;4995822;28;19930;-53
2022/08/25 12:04:41;;;;;;;;;;;;;;;26.02;62.75;101728.06;4994101;28;19922;-52
2022/08/25 12:07:09;;;;;;;;;;;;;;;26.12;62.78;101726.06;4992991;28;19967;-52
2022/08/25 12:09:55;;;;;;;;;;;;;;;26.23;62.41;101726.78;4996887;28;20293;-53
2022/08/25 12:12:29;;;;;;;;;;;;;;;26.30;62.00;101714.28;4973732;28;20424;-52
2022/08/25 12:14:54;;;;;;;;;;;;;;;26.33;62.03;101720.16;4980927;28;19941;-52
2022/08/25 12:17:24;;;;;;;;;;;;;;;26.37;61.70;101712.59;4997728;28;19918;-52
2022/08/25 12:19:52;;;;;;;;;;;;;;;26.41;61.71;101705.84;4994063;28;20036;-52
2022/08/25 12:22:17;;;;;;;;;;;;;;;26.45;61.93;101704.50;4997030;28;19930;-53
2022/08/25 12:24:43;;;;;;;;;;;;;;;26.53;61.54;101708.19;4995087;28;20278;-52
2022/08/25 12:27:11;;;;;;;;;;;;;;;26.60;61.40;101706.50;4995026;28;20430;-52
2022/08/25 12:29:41;;;;;;;;;;;;;;;26.66;61.39;101704.94;4978554;28;20438;-53
2022/08/25 12:32:24;;;;;;;;;;;;;;;26.73;61.34;101698.69;4996525;28;20297;-53
2022/08/25 12:34:56;;;;;;;;;;;;;;;26.83;61.32;101703.09;4992642;28;19925;-53
2022/08/25 12:37:22;;;;;;;;;;;;;;;26.91;60.56;101694.97;4996236;28;19922;-53
2022/08/25 12:39:48;;;;;;;;;;;;;;;26.94;60.84;101700.03;4995519;28;20040;-52
2022/08/25 12:42:32;;;;;;;;;;;;;;;26.97;60.36;101688.88;4994782;28;20441;-52
2022/08/25 12:45:09;;;;;;;;;;;;;;;26.99;60.47;101697.66;4993305;28;19929;-52
2022/08/25 12:47:35;;;;;;;;;;;;;;;27.03;60.46;101693.56;4992411;28;19922;-52
2022/08/25 12:50:18;;;;;;;;;;;;;;;27.04;60.19;101689.84;4996458;28;19939;-54
2022/08/25 12:52:44;;;;;;;;;;;;;;;27.07;60.21;101694.91;4995351;28;19932;-53
2022/08/25 12:55:11;;;;;;;;;;;;;;;27.10;59.99;101690.19;4994429;28;19931;-52
2022/08/25 12:57:44;;;;;;;;;;;;;;;27.12;59.97;101685.44;4996324;28;19972;-52
2022/08/25 13:00:14;;;;;;;;;;;;;;;27.15;59.97;101679.69;4991139;28;19921;-52
2022/08/25 13:03:00;;;;;;;;;;;;;;;27.18;59.81;101687.41;4991236;28;19930;-52
2022/08/25 13:05:48;;;;;;;;;;;;;;;27.23;59.58;101680.47;4986693;28;20040;-54